Time;durP1;ratioP1;P1;durP2;ratioP2;P2;SDS_P1;SDS_P2;PMS_P1;PMS_P2;Temp;Humidity;BMP_temperature;BMP_pressure;BME280_temperature;BME280_humidity;BME280_pressure;Samples;Min_cycle;Max_cycle;Signal;HPM_P1;HPM_P2
2023/01/25 00:02:13;;;;;;;77.35;39.40;;;;;;;;;;5003879;28;20077;-71
2023/01/25 00:04:39;;;;;;;76.53;39.83;;;;;;;;;;5005757;28;20080;-72
2023/01/25 00:07:06;;;;;;;82.00;41.10;;;;;;;;;;5004978;28;20036;-71
2023/01/25 00:09:34;;;;;;;83.15;40.30;;;;;;;;;;5005008;28;20256;-70
2023/01/25 00:11:59;;;;;;;84.80;41.45;;;;;;;;;;5002918;28;20398;-71
2023/01/25 00:14:25;;;;;;;87.18;42.65;;;;;;;;;;5003652;28;20069;-70
2023/01/25 00:16:52;;;;;;;96.57;44.75;;;;;;;;;;5004503;28;20554;-71
2023/01/25 00:19:18;;;;;;;94.00;44.53;;;;;;;;;;5003435;28;20113;-71
2023/01/25 00:21:43;;;;;;;91.97;44.47;;;;;;;;;;5002608;28;20034;-70
2023/01/25 00:24:10;;;;;;;87.57;42.30;;;;;;;;;;5003991;28;20479;-71
2023/01/25 00:26:36;;;;;;;89.20;43.00;;;;;;;;;;5004170;28;20034;-72
2023/01/25 00:29:02;;;;;;;84.80;42.60;;;;;;;;;;4999605;28;20088;-71
2023/01/25 00:31:33;;;;;;;87.32;42.67;;;;;;;;;;4984978;28;20052;-70
2023/01/25 00:34:17;;;;;;;95.82;42.85;;;;;;;;;;4983999;28;20109;-70
2023/01/25 00:36:43;;;;;;;85.45;40.80;;;;;;;;;;4984415;28;20109;-71
2023/01/25 00:39:12;;;;;;;84.32;42.17;;;;;;;;;;4985058;28;20022;-70
2023/01/25 00:41:38;;;;;;;83.63;42.45;;;;;;;;;;4984154;28;20019;-71
2023/01/25 00:44:03;;;;;;;91.63;43.25;;;;;;;;;;4983233;28;20494;-70
2023/01/25 00:46:29;;;;;;;92.78;43.72;;;;;;;;;;4983022;28;20274;-71
2023/01/25 00:48:54;;;;;;;92.03;43.92;;;;;;;;;;4985191;28;20050;-70
2023/01/25 00:51:20;;;;;;;91.28;43.95;;;;;;;;;;4984561;28;20543;-71
2023/01/25 00:53:45;;;;;;;92.90;44.67;;;;;;;;;;4984764;28;20030;-71
2023/01/25 00:56:11;;;;;;;90.38;42.75;;;;;;;;;;4966305;28;20044;-71
2023/01/25 00:58:36;;;;;;;89.35;42.33;;;;;;;;;;4983567;28;20093;-69
2023/01/25 01:01:01;;;;;;;94.72;44.55;;;;;;;;;;4982830;28;20110;-70
2023/01/25 01:03:26;;;;;;;98.03;46.85;;;;;;;;;;4982972;28;20110;-70
2023/01/25 01:06:02;;;;;;;95.72;44.95;;;;;;;;;;4983055;28;20234;-71
2023/01/25 01:08:28;;;;;;;98.38;45.00;;;;;;;;;;4982226;28;20030;-70
2023/01/25 01:11:00;;;;;;;101.75;46.63;;;;;;;;;;4984203;28;20478;-70
2023/01/25 01:13:26;;;;;;;103.38;46.15;;;;;;;;;;4984225;28;20042;-71
2023/01/25 01:15:51;;;;;;;105.70;47.35;;;;;;;;;;4984531;28;20419;-71
2023/01/25 01:18:17;;;;;;;112.88;49.45;;;;;;;;;;4982549;28;20046;-71
2023/01/25 01:20:47;;;;;;;115.03;48.20;;;;;;;;;;4984648;28;20018;-71
2023/01/25 01:23:14;;;;;;;110.88;49.22;;;;;;;;;;4982799;28;20034;-71
2023/01/25 01:25:42;;;;;;;112.30;49.50;;;;;;;;;;4984585;28;20693;-71
2023/01/25 01:28:07;;;;;;;107.20;49.97;;;;;;;;;;4982728;28;20033;-71
2023/01/25 01:30:32;;;;;;;107.43;48.92;;;;;;;;;;4966509;28;20125;-71
2023/01/25 01:32:58;;;;;;;110.93;48.22;;;;;;;;;;4983694;28;20027;-70
2023/01/25 01:35:23;;;;;;;105.47;48.08;;;;;;;;;;4983998;28;20049;-70
2023/01/25 01:37:48;;;;;;;102.70;48.08;;;;;;;;;;4983357;28;20109;-71
2023/01/25 01:40:16;;;;;;;103.97;46.80;;;;;;;;;;4982304;28;20027;-70
2023/01/25 01:43:00;;;;;;;98.40;44.97;;;;;;;;;;4983474;28;20900;-70
2023/01/25 01:45:44;;;;;;;98.80;44.60;;;;;;;;;;4983408;28;20092;-70
2023/01/25 01:48:15;;;;;;;100.60;46.35;;;;;;;;;;4964158;28;20275;-70
2023/01/25 01:50:41;;;;;;;100.90;45.13;;;;;;;;;;4962818;28;20481;-70
2023/01/25 01:53:08;;;;;;;95.35;46.40;;;;;;;;;;4965046;28;20038;-70
2023/01/25 01:55:35;;;;;;;100.40;46.17;;;;;;;;;;4964529;28;20129;-70
2023/01/25 01:58:02;;;;;;;101.28;46.33;;;;;;;;;;4964785;28;20026;-70
2023/01/25 02:00:35;;;;;;;97.90;44.35;;;;;;;;;;4963973;28;20508;-70
2023/01/25 02:03:00;;;;;;;92.82;44.03;;;;;;;;;;4962168;28;20501;-70
2023/01/25 02:05:28;;;;;;;93.10;43.88;;;;;;;;;;4964542;28;20122;-70
2023/01/25 02:07:57;;;;;;;90.43;41.88;;;;;;;;;;4963829;28;20059;-71
2023/01/25 02:10:24;;;;;;;90.72;42.53;;;;;;;;;;4964021;28;20042;-71
2023/01/25 02:12:53;;;;;;;94.75;42.85;;;;;;;;;;4962635;28;20042;-71
2023/01/25 02:15:18;;;;;;;88.75;42.13;;;;;;;;;;4963994;28;20031;-70
2023/01/25 02:17:43;;;;;;;95.20;43.60;;;;;;;;;;4964312;28;20096;-71
2023/01/25 02:20:21;;;;;;;94.32;44.90;;;;;;;;;;4964685;28;20499;-71
2023/01/25 02:22:49;;;;;;;88.05;41.45;;;;;;;;;;4963924;28;20081;-71
2023/01/25 02:25:15;;;;;;;98.43;43.75;;;;;;;;;;4961934;28;20030;-71
2023/01/25 02:27:44;;;;;;;89.18;43.15;;;;;;;;;;4964940;28;20039;-71
2023/01/25 02:30:09;;;;;;;90.55;42.63;;;;;;;;;;4965232;28;20054;-71
2023/01/25 02:32:35;;;;;;;90.30;42.03;;;;;;;;;;4981252;28;20502;-72
2023/01/25 02:35:03;;;;;;;91.10;42.00;;;;;;;;;;4982758;28;20030;-69
2023/01/25 02:37:29;;;;;;;93.70;42.70;;;;;;;;;;4983083;28;20499;-72
2023/01/25 02:39:54;;;;;;;92.30;43.08;;;;;;;;;;4981026;28;20395;-70
2023/01/25 02:42:19;;;;;;;86.85;40.22;;;;;;;;;;4965328;28;20089;-72
2023/01/25 02:44:45;;;;;;;88.13;40.83;;;;;;;;;;4982851;28;20049;-70
2023/01/25 02:47:11;;;;;;;85.50;40.22;;;;;;;;;;4995865;28;20053;-70
2023/01/25 02:49:36;;;;;;;85.55;40.38;;;;;;;;;;5002213;28;20487;-70
2023/01/25 02:52:02;;;;;;;84.05;40.30;;;;;;;;;;4984420;28;20068;-70
2023/01/25 02:54:27;;;;;;;86.50;39.10;;;;;;;;;;5000311;28;20161;-70
2023/01/25 02:56:53;;;;;;;84.95;40.42;;;;;;;;;;5000995;28;20518;-70
2023/01/25 02:59:18;;;;;;;82.65;39.50;;;;;;;;;;5002033;28;20026;-71
2023/01/25 03:01:44;;;;;;;81.50;39.65;;;;;;;;;;5002379;28;20030;-71
2023/01/25 03:04:09;;;;;;;86.70;39.40;;;;;;;;;;5000624;28;20401;-71
2023/01/25 03:06:38;;;;;;;84.63;39.80;;;;;;;;;;5002386;28;20030;-71
2023/01/25 03:09:04;;;;;;;82.38;38.90;;;;;;;;;;5002504;28;20026;-70
2023/01/25 03:11:29;;;;;;;86.80;40.45;;;;;;;;;;5001057;28;20273;-70
2023/01/25 03:13:55;;;;;;;90.32;41.80;;;;;;;;;;5000195;28;20104;-70
2023/01/25 03:16:20;;;;;;;86.75;40.00;;;;;;;;;;5002393;28;20038;-72
2023/01/25 03:18:45;;;;;;;91.47;41.80;;;;;;;;;;5000263;28;20034;-70
2023/01/25 03:21:15;;;;;;;90.55;41.15;;;;;;;;;;4983397;28;20221;-70
2023/01/25 03:23:41;;;;;;;94.95;43.03;;;;;;;;;;5001908;28;20121;-70
2023/01/25 03:26:11;;;;;;;92.20;41.72;;;;;;;;;;5002603;28;20113;-71
2023/01/25 03:28:37;;;;;;;88.30;40.33;;;;;;;;;;4989941;28;20034;-70
2023/01/25 03:31:02;;;;;;;90.75;41.53;;;;;;;;;;4981328;28;20396;-71
2023/01/25 03:33:28;;;;;;;87.40;39.35;;;;;;;;;;4982152;28;20166;-70
2023/01/25 03:35:56;;;;;;;83.43;40.83;;;;;;;;;;4982419;28;20038;-71
2023/01/25 03:38:21;;;;;;;86.32;40.42;;;;;;;;;;4983232;28;20399;-71
2023/01/25 03:40:47;;;;;;;85.20;39.85;;;;;;;;;;4980230;28;20054;-70
2023/01/25 03:43:15;;;;;;;87.10;41.40;;;;;;;;;;4980852;28;20026;-71
2023/01/25 03:45:41;;;;;;;95.28;43.05;;;;;;;;;;4982727;28;20045;-71
2023/01/25 03:48:06;;;;;;;86.15;40.17;;;;;;;;;;5002082;28;20049;-71
2023/01/25 03:50:31;;;;;;;87.75;42.72;;;;;;;;;;5001785;28;20285;-70
2023/01/25 03:53:05;;;;;;;92.45;42.00;;;;;;;;;;5001777;28;20034;-70
2023/01/25 03:55:31;;;;;;;84.03;40.17;;;;;;;;;;5001581;28;20034;-71
2023/01/25 03:57:56;;;;;;;88.53;40.88;;;;;;;;;;5003584;28;20030;-71
2023/01/25 04:00:24;;;;;;;91.47;41.55;;;;;;;;;;5003413;28;20034;-70
2023/01/25 04:02:49;;;;;;;94.95;42.10;;;;;;;;;;5005722;28;20438;-70
2023/01/25 04:05:17;;;;;;;89.28;40.80;;;;;;;;;;5003997;28;20394;-70
2023/01/25 04:07:42;;;;;;;86.35;39.38;;;;;;;;;;5003501;28;20032;-70
2023/01/25 04:10:08;;;;;;;86.90;38.45;;;;;;;;;;4986107;28;20042;-72
2023/01/25 04:12:33;;;;;;;88.88;39.55;;;;;;;;;;5004924;28;20030;-73
2023/01/25 04:14:58;;;;;;;97.25;41.90;;;;;;;;;;5005243;28;20340;-75
2023/01/25 04:17:24;;;;;;;89.13;40.10;;;;;;;;;;5003916;28;20038;-74
2023/01/25 04:19:49;;;;;;;86.28;40.17;;;;;;;;;;5004849;28;20036;-74
2023/01/25 04:22:15;;;;;;;86.68;39.78;;;;;;;;;;5005297;28;20474;-74
2023/01/25 04:24:40;;;;;;;93.07;40.63;;;;;;;;;;5002981;28;20041;-75
2023/01/25 04:27:05;;;;;;;84.82;38.30;;;;;;;;;;5001658;28;20034;-75
2023/01/25 04:29:31;;;;;;;93.68;41.72;;;;;;;;;;4985645;28;20491;-75
2023/01/25 04:31:56;;;;;;;88.07;39.58;;;;;;;;;;4984318;28;20121;-75
2023/01/25 04:34:22;;;;;;;88.72;39.92;;;;;;;;;;4985081;28;20034;-74
2023/01/25 04:36:48;;;;;;;92.70;40.20;;;;;;;;;;4985324;28;20050;-74
2023/01/25 04:39:13;;;;;;;93.05;40.58;;;;;;;;;;4984883;28;20061;-73
2023/01/25 04:41:38;;;;;;;94.13;42.90;;;;;;;;;;4985537;28;20114;-73
2023/01/25 04:44:04;;;;;;;97.28;40.80;;;;;;;;;;4984433;28;20121;-73
2023/01/25 04:46:29;;;;;;;90.30;39.83;;;;;;;;;;4992741;28;20034;-74
2023/01/25 04:48:54;;;;;;;95.05;42.15;;;;;;;;;;5004617;28;20038;-75
2023/01/25 04:51:22;;;;;;;92.78;40.97;;;;;;;;;;5004397;28;20417;-74
2023/01/25 04:53:50;;;;;;;88.88;39.55;;;;;;;;;;5002889;28;20063;-74
2023/01/25 04:56:16;;;;;;;87.70;39.97;;;;;;;;;;5003604;28;20495;-74
2023/01/25 04:58:41;;;;;;;93.90;41.40;;;;;;;;;;5002525;28;20053;-74
2023/01/25 05:01:06;;;;;;;99.85;42.50;;;;;;;;;;5003017;28;20471;-74
2023/01/25 05:03:31;;;;;;;107.20;44.03;;;;;;;;;;5003111;28;20037;-75
2023/01/25 05:05:57;;;;;;;105.32;44.47;;;;;;;;;;4985837;28;20086;-73
2023/01/25 05:08:22;;;;;;;105.10;46.22;;;;;;;;;;5003873;28;20041;-74
2023/01/25 05:10:47;;;;;;;100.10;43.40;;;;;;;;;;5003163;28;20121;-74
2023/01/25 05:13:13;;;;;;;92.95;40.72;;;;;;;;;;5004433;28;20030;-74
2023/01/25 05:15:40;;;;;;;94.78;42.47;;;;;;;;;;5003531;28;20030;-74
2023/01/25 05:18:06;;;;;;;98.43;43.67;;;;;;;;;;5002671;28;20451;-74
2023/01/25 05:20:31;;;;;;;103.90;44.53;;;;;;;;;;5004280;28;20109;-74
2023/01/25 05:22:56;;;;;;;105.50;45.42;;;;;;;;;;4969924;28;20022;-74
2023/01/25 05:28:05;;;;;;;98.97;43.53;;;;;;;;;;4989069;28;20443;-74
2023/01/25 05:30:31;;;;;;;94.03;41.60;;;;;;;;;;4966533;28;20030;-74
2023/01/25 05:32:56;;;;;;;94.90;42.42;;;;;;;;;;4984188;28;20182;-74
2023/01/25 05:35:22;;;;;;;86.63;38.80;;;;;;;;;;4984538;28;20038;-74
2023/01/25 05:37:47;;;;;;;99.30;41.53;;;;;;;;;;4982219;28;20037;-74
2023/01/25 05:40:12;;;;;;;87.32;38.50;;;;;;;;;;4984234;28;20126;-75
2023/01/25 05:42:38;;;;;;;86.97;39.42;;;;;;;;;;4983972;28;20117;-74
2023/01/25 05:45:05;;;;;;;92.53;39.67;;;;;;;;;;4983855;28;20422;-75
2023/01/25 05:47:31;;;;;;;86.28;38.83;;;;;;;;;;5000131;28;20034;-75
2023/01/25 05:49:56;;;;;;;91.57;39.80;;;;;;;;;;5002664;28;20088;-74
2023/01/25 05:52:21;;;;;;;86.30;38.88;;;;;;;;;;5003966;28;20033;-75
2023/01/25 05:54:47;;;;;;;82.20;38.13;;;;;;;;;;5004051;28;20036;-73
2023/01/25 05:57:12;;;;;;;86.80;39.28;;;;;;;;;;5003032;28;20107;-74
2023/01/25 05:59:38;;;;;;;89.45;39.65;;;;;;;;;;5003534;28;20034;-74
2023/01/25 06:02:03;;;;;;;94.00;42.13;;;;;;;;;;5003720;28;20045;-74
2023/01/25 06:04:28;;;;;;;98.28;42.75;;;;;;;;;;5003252;28;20026;-75
2023/01/25 06:06:54;;;;;;;94.97;43.03;;;;;;;;;;5003510;28;20100;-74
2023/01/25 06:09:19;;;;;;;92.60;42.42;;;;;;;;;;5003538;28;20034;-74
2023/01/25 06:11:44;;;;;;;89.85;42.42;;;;;;;;;;5002028;28;20109;-74
2023/01/25 06:14:10;;;;;;;92.65;41.90;;;;;;;;;;5003413;28;20029;-74
2023/01/25 06:16:35;;;;;;;96.57;42.58;;;;;;;;;;5001740;28;20034;-74
2023/01/25 06:19:00;;;;;;;100.43;43.72;;;;;;;;;;5001893;28;20045;-74
2023/01/25 06:21:26;;;;;;;97.63;42.13;;;;;;;;;;5002546;28;20091;-74
2023/01/25 06:23:51;;;;;;;98.10;43.67;;;;;;;;;;5002540;28;20091;-72
2023/01/25 06:26:16;;;;;;;109.32;45.70;;;;;;;;;;4999095;28;20041;-74
2023/01/25 06:28:42;;;;;;;103.18;43.38;;;;;;;;;;4982247;28;20170;-75
2023/01/25 06:31:09;;;;;;;103.43;44.63;;;;;;;;;;4983458;28;20038;-74
2023/01/25 06:33:35;;;;;;;99.95;43.80;;;;;;;;;;4983802;28;20045;-75
2023/01/25 06:36:02;;;;;;;96.82;43.83;;;;;;;;;;4984110;28;20034;-73
2023/01/25 06:38:30;;;;;;;104.75;44.30;;;;;;;;;;4983122;28;20610;-75
2023/01/25 06:41:00;;;;;;;95.00;43.13;;;;;;;;;;4984468;28;20034;-75
2023/01/25 06:43:25;;;;;;;98.50;43.25;;;;;;;;;;4984044;28;20034;-74
2023/01/25 06:45:51;;;;;;;105.15;45.80;;;;;;;;;;4985540;28;20049;-74
2023/01/25 06:48:16;;;;;;;108.95;45.95;;;;;;;;;;5003534;28;20034;-74
2023/01/25 06:50:41;;;;;;;101.15;45.05;;;;;;;;;;5001718;28;20080;-75
2023/01/25 06:53:06;;;;;;;104.85;45.08;;;;;;;;;;5003670;28;20045;-73
2023/01/25 06:55:32;;;;;;;102.90;44.58;;;;;;;;;;5003598;28;20052;-74
2023/01/25 06:57:59;;;;;;;102.75;44.60;;;;;;;;;;5003078;28;20034;-74
2023/01/25 07:00:24;;;;;;;104.15;45.85;;;;;;;;;;5004177;28;20042;-76
2023/01/25 07:02:49;;;;;;;105.13;46.35;;;;;;;;;;5003427;28;20080;-75
2023/01/25 07:05:15;;;;;;;107.45;43.42;;;;;;;;;;5004044;28;20088;-75
2023/01/25 07:07:43;;;;;;;107.00;46.50;;;;;;;;;;5003817;28;20026;-73
2023/01/25 07:10:08;;;;;;;110.88;48.00;;;;;;;;;;5003401;28;20169;-74
2023/01/25 07:12:34;;;;;;;102.72;46.00;;;;;;;;;;5002908;28;20038;-74
2023/01/25 07:14:59;;;;;;;111.05;49.60;;;;;;;;;;5002978;28;20030;-74
2023/01/25 07:17:24;;;;;;;108.07;46.85;;;;;;;;;;5002317;28;20045;-74
2023/01/25 07:19:50;;;;;;;114.80;46.97;;;;;;;;;;5002726;28;20406;-74
2023/01/25 07:22:16;;;;;;;108.40;45.90;;;;;;;;;;5002466;28;20502;-73
2023/01/25 07:24:48;;;;;;;105.13;49.97;;;;;;;;;;5004074;28;20033;-73
2023/01/25 07:27:13;;;;;;;104.30;43.53;;;;;;;;;;4986778;28;20042;-70
2023/01/25 07:29:40;;;;;;;99.50;42.83;;;;;;;;;;4983234;28;20464;-70
2023/01/25 07:32:05;;;;;;;90.85;41.95;;;;;;;;;;4983013;28;20432;-71
2023/01/25 07:34:30;;;;;;;92.30;42.40;;;;;;;;;;4987388;28;20113;-70
2023/01/25 07:36:56;;;;;;;90.57;41.85;;;;;;;;;;4984492;28;20031;-70
2023/01/25 07:39:21;;;;;;;90.82;40.08;;;;;;;;;;4987096;28;20085;-70
2023/01/25 07:41:46;;;;;;;100.50;41.72;;;;;;;;;;4986141;28;20126;-71
2023/01/25 07:44:12;;;;;;;93.20;42.50;;;;;;;;;;4984831;28;20042;-71
2023/01/25 07:46:37;;;;;;;95.45;43.28;;;;;;;;;;4994152;28;20524;-71
2023/01/25 07:49:03;;;;;;;105.50;46.20;;;;;;;;;;5004538;28;20116;-70
2023/01/25 07:51:30;;;;;;;107.10;48.42;;;;;;;;;;5005575;28;20136;-70
2023/01/25 07:53:56;;;;;;;107.95;45.78;;;;;;;;;;5006617;28;20133;-71
2023/01/25 07:56:25;;;;;;;110.18;45.78;;;;;;;;;;5005871;28;20032;-70
2023/01/25 07:58:56;;;;;;;108.88;46.72;;;;;;;;;;5006661;28;20026;-74
2023/01/25 08:01:22;;;;;;;121.20;50.50;;;;;;;;;;5006460;28;20030;-74
2023/01/25 08:03:48;;;;;;;116.13;51.92;;;;;;;;;;5004596;28;21547;-75
2023/01/25 08:06:13;;;;;;;116.20;51.50;;;;;;;;;;5003610;28;20092;-74
2023/01/25 08:08:40;;;;;;;118.65;52.83;;;;;;;;;;4988473;28;20054;-75
2023/01/25 08:11:14;;;;;;;120.65;51.25;;;;;;;;;;5005173;28;20384;-75
2023/01/25 08:13:40;;;;;;;118.50;50.95;;;;;;;;;;5005871;28;20026;-74
2023/01/25 08:16:05;;;;;;;108.82;45.92;;;;;;;;;;5006035;28;20034;-74
2023/01/25 08:18:30;;;;;;;116.55;52.13;;;;;;;;;;5005307;28;20030;-74
2023/01/25 08:20:59;;;;;;;113.18;48.80;;;;;;;;;;5005709;28;20197;-74
2023/01/25 08:23:27;;;;;;;118.10;50.38;;;;;;;;;;5004474;28;20413;-74
2023/01/25 08:25:52;;;;;;;117.40;49.85;;;;;;;;;;4997554;28;20030;-73
2023/01/25 08:28:17;;;;;;;111.57;47.55;;;;;;;;;;4986667;28;20026;-74
2023/01/25 08:30:43;;;;;;;115.18;50.17;;;;;;;;;;4987396;28;20031;-72
2023/01/25 08:33:10;;;;;;;109.60;46.83;;;;;;;;;;4987172;28;20069;-74
2023/01/25 08:35:36;;;;;;;101.13;44.83;;;;;;;;;;4968598;28;20062;-71
2023/01/25 08:38:02;;;;;;;100.60;45.05;;;;;;;;;;4968380;28;20454;-71
2023/01/25 08:40:27;;;;;;;105.38;45.92;;;;;;;;;;4985373;28;20061;-73
2023/01/25 08:42:52;;;;;;;109.65;48.67;;;;;;;;;;4986077;28;20108;-74
2023/01/25 08:45:18;;;;;;;102.15;47.65;;;;;;;;;;4984261;28;20052;-73
2023/01/25 08:47:43;;;;;;;99.35;45.58;;;;;;;;;;5001996;28;20297;-74
2023/01/25 08:50:09;;;;;;;102.15;44.92;;;;;;;;;;5004140;28;20038;-74
2023/01/25 08:52:34;;;;;;;101.75;44.95;;;;;;;;;;5005374;28;20033;-75
2023/01/25 08:55:00;;;;;;;106.03;45.65;;;;;;;;;;5003990;28;20034;-74
2023/01/25 08:57:25;;;;;;;106.00;46.95;;;;;;;;;;4986716;28;20026;-70
2023/01/25 08:59:50;;;;;;;111.65;47.95;;;;;;;;;;5004734;28;20044;-70
2023/01/25 09:02:16;;;;;;;113.55;49.03;;;;;;;;;;5004338;28;20185;-70
2023/01/25 09:04:41;;;;;;;113.75;48.15;;;;;;;;;;5003350;28;20401;-70
2023/01/25 09:07:06;;;;;;;110.20;47.63;;;;;;;;;;4986270;28;20030;-71
2023/01/25 09:09:32;;;;;;;108.50;49.38;;;;;;;;;;5004140;28;20510;-70
2023/01/25 09:11:57;;;;;;;111.15;50.03;;;;;;;;;;5004824;28;20301;-71
2023/01/25 09:14:22;;;;;;;105.65;47.05;;;;;;;;;;5004374;28;20034;-71
2023/01/25 09:16:48;;;;;;;103.60;46.50;;;;;;;;;;5005588;28;20025;-71
2023/01/25 09:19:13;;;;;;;106.40;47.10;;;;;;;;;;5003857;28;20105;-70
2023/01/25 09:21:39;;;;;;;107.85;49.13;;;;;;;;;;5003436;28;20245;-74
2023/01/25 09:24:04;;;;;;;112.50;51.13;;;;;;;;;;5003835;28;20309;-74
2023/01/25 09:26:30;;;;;;;114.10;48.45;;;;;;;;;;4986321;28;20041;-74
2023/01/25 09:28:55;;;;;;;112.72;49.15;;;;;;;;;;4984397;28;20487;-73
2023/01/25 09:31:21;;;;;;;104.90;46.50;;;;;;;;;;4985004;28;20042;-74
2023/01/25 09:33:46;;;;;;;107.60;47.95;;;;;;;;;;4967179;28;20057;-74
2023/01/25 09:36:12;;;;;;;108.82;49.20;;;;;;;;;;4984899;28;20030;-74
2023/01/25 09:38:37;;;;;;;105.57;46.88;;;;;;;;;;4984788;28;20031;-72
2023/01/25 09:41:14;;;;;;;103.22;47.28;;;;;;;;;;4985137;28;20511;-73
2023/01/25 09:43:58;;;;;;;109.57;48.08;;;;;;;;;;4982391;28;20031;-73
2023/01/25 09:46:43;;;;;;;118.22;50.70;;;;;;;;;;4991445;28;20026;-74
2023/01/25 09:49:09;;;;;;;108.82;49.10;;;;;;;;;;5004361;28;20057;-74
2023/01/25 09:51:47;;;;;;;114.55;51.53;;;;;;;;;;5003437;28;20066;-73
2023/01/25 09:54:13;;;;;;;106.80;49.55;;;;;;;;;;5002404;28;20041;-73
2023/01/25 09:56:38;;;;;;;111.18;49.85;;;;;;;;;;5003780;28;20417;-74
2023/01/25 09:59:11;;;;;;;112.60;50.22;;;;;;;;;;5003601;28;20368;-73
2023/01/25 10:01:48;;;;;;;112.55;49.35;;;;;;;;;;5003588;28;20121;-74
2023/01/25 10:04:32;;;;;;;96.80;44.53;;;;;;;;;;5003472;28;20053;-74
2023/01/25 10:07:09;;;;;;;104.50;48.53;;;;;;;;;;5002887;28;20061;-74
2023/01/25 10:09:42;;;;;;;106.35;48.42;;;;;;;;;;5003764;28;20030;-73
2023/01/25 10:12:16;;;;;;;101.70;46.58;;;;;;;;;;5001793;28;20042;-75
2023/01/25 10:14:41;;;;;;;101.85;47.80;;;;;;;;;;5003090;28;20041;-74
2023/01/25 10:17:25;;;;;;;109.55;48.72;;;;;;;;;;5003255;28;20398;-74
2023/01/25 10:19:50;;;;;;;110.85;48.70;;;;;;;;;;5001305;28;20097;-74
2023/01/25 10:22:18;;;;;;;105.38;48.97;;;;;;;;;;5002999;28;20125;-74
2023/01/25 10:24:51;;;;;;;109.65;50.58;;;;;;;;;;4993683;28;20031;-73
2023/01/25 10:27:22;;;;;;;102.68;46.40;;;;;;;;;;4983465;28;20511;-74
2023/01/25 10:29:48;;;;;;;101.65;49.05;;;;;;;;;;4981981;28;20208;-73
2023/01/25 10:32:17;;;;;;;107.13;48.88;;;;;;;;;;4983682;28;20251;-75
2023/01/25 10:34:46;;;;;;;107.38;49.80;;;;;;;;;;4983617;28;20041;-73
2023/01/25 10:37:13;;;;;;;101.68;47.05;;;;;;;;;;4981884;28;20349;-73
2023/01/25 10:39:41;;;;;;;100.40;47.55;;;;;;;;;;4981753;28;20456;-73
2023/01/25 10:42:08;;;;;;;103.03;49.95;;;;;;;;;;4983323;28;20034;-72
2023/01/25 10:44:37;;;;;;;98.63;47.63;;;;;;;;;;4983054;28;20046;-72
2023/01/25 10:47:02;;;;;;;95.55;46.72;;;;;;;;;;4993894;28;20484;-73
2023/01/25 10:49:43;;;;;;;108.82;49.83;;;;;;;;;;5002663;28;20053;-72
2023/01/25 10:52:14;;;;;;;102.22;47.90;;;;;;;;;;4999455;28;20042;-73
2023/01/25 10:54:39;;;;;;;96.25;45.38;;;;;;;;;;4984647;28;20483;-74
2023/01/25 10:57:06;;;;;;;100.05;46.13;;;;;;;;;;5002491;28;20105;-73
2023/01/25 10:59:32;;;;;;;100.55;46.80;;;;;;;;;;5002648;28;20026;-73
2023/01/25 11:02:17;;;;;;;98.82;47.13;;;;;;;;;;4985360;28;20060;-74
2023/01/25 11:04:46;;;;;;;106.78;48.67;;;;;;;;;;5000834;28;20117;-74
2023/01/25 11:07:26;;;;;;;98.53;47.75;;;;;;;;;;5002583;28;20498;-74
2023/01/25 11:09:52;;;;;;;93.63;46.55;;;;;;;;;;5006296;28;20022;-73
2023/01/25 11:12:18;;;;;;;95.32;46.95;;;;;;;;;;4988830;28;20034;-74
2023/01/25 11:14:44;;;;;;;103.78;48.08;;;;;;;;;;5006410;28;20084;-74
2023/01/25 11:17:30;;;;;;;100.10;49.05;;;;;;;;;;5004865;28;20030;-74
2023/01/25 11:20:17;;;;;;;103.53;48.72;;;;;;;;;;5006262;28;20088;-73
2023/01/25 11:22:50;;;;;;;107.82;48.53;;;;;;;;;;5004562;28;20030;-70
2023/01/25 11:25:24;;;;;;;97.00;48.63;;;;;;;;;;4990202;28;20031;-70
2023/01/25 11:27:49;;;;;;;89.80;44.83;;;;;;;;;;4986983;28;20053;-71
2023/01/25 11:30:15;;;;;;;90.93;47.25;;;;;;;;;;4985282;28;20061;-72
2023/01/25 11:32:41;;;;;;;104.80;52.42;;;;;;;;;;4986010;28;20403;-70
2023/01/25 11:35:12;;;;;;;98.15;47.70;;;;;;;;;;4985948;28;20030;-71
2023/01/25 11:37:40;;;;;;;97.05;49.67;;;;;;;;;;4984620;28;20162;-70
2023/01/25 11:40:28;;;;;;;96.63;49.92;;;;;;;;;;4984133;28;20037;-70
2023/01/25 11:43:06;;;;;;;86.97;45.22;;;;;;;;;;4986542;28;20030;-71
2023/01/25 11:45:31;;;;;;;91.45;46.38;;;;;;;;;;4985817;28;20170;-70
2023/01/25 11:48:06;;;;;;;113.68;50.97;;;;;;;;;;5005433;28;20554;-72
2023/01/25 11:50:31;;;;;;;98.65;47.10;;;;;;;;;;5005345;28;20679;-70
2023/01/25 11:53:09;;;;;;;110.07;51.35;;;;;;;;;;5006452;28;20062;-70
2023/01/25 11:55:39;;;;;;;121.00;51.58;;;;;;;;;;5005641;28;20022;-71
2023/01/25 11:58:16;;;;;;;109.63;52.25;;;;;;;;;;5003847;28;20026;-70
2023/01/25 12:00:53;;;;;;;100.70;49.17;;;;;;;;;;5005244;28;20037;-70
2023/01/25 12:03:28;;;;;;;105.03;49.70;;;;;;;;;;5005465;28;20030;-70
2023/01/25 12:05:56;;;;;;;109.15;49.95;;;;;;;;;;5003892;28;20042;-70
2023/01/25 12:08:39;;;;;;;95.57;47.63;;;;;;;;;;5004773;28;20228;-70
2023/01/25 12:11:08;;;;;;;119.47;56.10;;;;;;;;;;5004973;28;20418;-70
2023/01/25 12:13:54;;;;;;;124.10;56.20;;;;;;;;;;5003203;28;20022;-70
2023/01/25 12:16:22;;;;;;;101.97;49.97;;;;;;;;;;4992552;28;20576;-70
2023/01/25 12:18:47;;;;;;;99.53;50.72;;;;;;;;;;5005167;28;20022;-71
2023/01/25 12:21:22;;;;;;;94.57;47.28;;;;;;;;;;5004154;28;20450;-70
2023/01/25 12:23:56;;;;;;;85.32;43.75;;;;;;;;;;4996281;28;20029;-70
2023/01/25 12:26:43;;;;;;;90.97;45.83;;;;;;;;;;4985502;28;20038;-69
2023/01/25 12:29:17;;;;;;;89.03;44.78;;;;;;;;;;4985577;28;20019;-71
2023/01/25 12:31:44;;;;;;;81.75;44.75;;;;;;;;;;4983156;28;20109;-69
2023/01/25 12:34:20;;;;;;;83.82;43.88;;;;;;;;;;4985208;28;20104;-71
2023/01/25 12:36:46;;;;;;;84.15;45.30;;;;;;;;;;4983391;28;20034;-70
2023/01/25 12:39:11;;;;;;;88.20;45.38;;;;;;;;;;4985703;28;24890;-70
2023/01/25 12:41:46;;;;;;;87.97;44.38;;;;;;;;;;4985292;28;20030;-70
2023/01/25 12:44:14;;;;;;;90.28;46.10;;;;;;;;;;4984223;28;20114;-70
2023/01/25 12:47:03;;;;;;;91.43;46.60;;;;;;;;;;4993603;28;20042;-71
2023/01/25 12:49:49;;;;;;;85.63;43.70;;;;;;;;;;5000113;28;20039;-73
2023/01/25 12:52:23;;;;;;;83.65;43.05;;;;;;;;;;5002879;28;20038;-70
2023/01/25 12:54:49;;;;;;;87.63;44.40;;;;;;;;;;5004613;28;20045;-70
2023/01/25 12:57:24;;;;;;;83.47;43.95;;;;;;;;;;5005033;28;20056;-71
2023/01/25 12:59:58;;;;;;;89.25;43.65;;;;;;;;;;5002382;28;20029;-70
2023/01/25 13:02:27;;;;;;;91.15;45.80;;;;;;;;;;5002697;28;20088;-70
2023/01/25 13:04:58;;;;;;;89.53;47.30;;;;;;;;;;5004102;28;20030;-70
2023/01/25 13:07:28;;;;;;;88.25;45.45;;;;;;;;;;5002535;28;20034;-71
2023/01/25 13:10:14;;;;;;;93.35;48.35;;;;;;;;;;5004073;28;20360;-71
2023/01/25 13:13:02;;;;;;;93.90;46.63;;;;;;;;;;5004524;28;20095;-70
2023/01/25 13:15:37;;;;;;;84.43;43.00;;;;;;;;;;5002481;28;20367;-70
2023/01/25 13:18:21;;;;;;;95.15;47.00;;;;;;;;;;5002434;28;20074;-70
2023/01/25 13:20:47;;;;;;;83.03;42.95;;;;;;;;;;5001980;28;20414;-71
2023/01/25 13:23:32;;;;;;;91.05;46.33;;;;;;;;;;4996147;28;20502;-71
2023/01/25 13:26:16;;;;;;;87.90;46.00;;;;;;;;;;4983924;28;20049;-71
2023/01/25 13:28:43;;;;;;;90.63;45.72;;;;;;;;;;4984200;28;20026;-71
2023/01/25 13:31:09;;;;;;;92.78;45.92;;;;;;;;;;4983371;28;20026;-71
2023/01/25 13:33:34;;;;;;;88.85;43.83;;;;;;;;;;4984789;28;20080;-70
2023/01/25 13:36:18;;;;;;;60.03;34.53;;;;;;;;;;4984714;28;20031;-70
2023/01/25 13:38:43;;;;;;;63.97;35.13;;;;;;;;;;4984533;28;20037;-71
2023/01/25 13:41:15;;;;;;;56.00;33.10;;;;;;;;;;4984348;28;20035;-71
2023/01/25 13:43:41;;;;;;;54.60;32.75;;;;;;;;;;4982380;28;20030;-71
2023/01/25 13:46:09;;;;;;;60.25;33.92;;;;;;;;;;4986349;28;20037;-70
2023/01/25 13:48:35;;;;;;;58.28;32.85;;;;;;;;;;5002801;28;20029;-75
2023/01/25 13:51:03;;;;;;;56.92;33.20;;;;;;;;;;5003734;28;21545;-73
2023/01/25 13:53:32;;;;;;;57.92;33.63;;;;;;;;;;5000101;28;20034;-74
2023/01/25 13:55:57;;;;;;;56.05;31.83;;;;;;;;;;5003353;28;20029;-73
2023/01/25 13:58:30;;;;;;;52.17;31.17;;;;;;;;;;5003445;28;20033;-73
2023/01/25 14:01:02;;;;;;;49.42;29.67;;;;;;;;;;5003524;28;20032;-74
2023/01/25 14:03:48;;;;;;;51.45;30.20;;;;;;;;;;5003274;28;20152;-73
2023/01/25 14:06:16;;;;;;;50.00;30.48;;;;;;;;;;5003496;28;20026;-74
2023/01/25 14:08:42;;;;;;;50.72;31.08;;;;;;;;;;5003392;28;20409;-73
2023/01/25 14:11:08;;;;;;;46.42;28.02;;;;;;;;;;5001915;28;20025;-74
2023/01/25 14:13:33;;;;;;;49.83;30.52;;;;;;;;;;5001248;28;20475;-74
2023/01/25 14:15:59;;;;;;;52.90;30.75;;;;;;;;;;5001667;28;20037;-70
2023/01/25 14:18:28;;;;;;;50.30;29.48;;;;;;;;;;5000935;28;20082;-70
2023/01/25 14:21:11;;;;;;;49.58;28.73;;;;;;;;;;5001536;28;20534;-70